createdAt,value
2023-03-03T00:01:18.403Z,41.90
2023-03-03T00:03:45.652Z,38.95
2023-03-03T00:06:14.447Z,37.95
2023-03-03T00:08:41.780Z,36.58
2023-03-03T00:11:09.533Z,39.92
2023-03-03T00:13:47.406Z,37.75
2023-03-03T00:16:25.163Z,37.53
2023-03-03T00:18:53.528Z,42.42
2023-03-03T00:21:29.647Z,34.03
2023-03-03T00:24:13.024Z,38.58
2023-03-03T00:26:42.145Z,37.33
2023-03-03T00:29:37.243Z,38.55
2023-03-03T00:32:16.502Z,41.15
2023-03-03T00:34:44.858Z,36.63
2023-03-03T00:37:30.957Z,35.40
2023-03-03T00:40:38.150Z,34.40
2023-03-03T00:43:23.278Z,35.77
2023-03-03T00:45:52.756Z,39.63
2023-03-03T00:48:24.554Z,34.72
2023-03-03T00:50:54.763Z,36.65
2023-03-03T00:53:24.251Z,37.58
2023-03-03T00:55:53.308Z,34.88
2023-03-03T00:58:21.999Z,34.33
2023-03-03T01:00:54.723Z,37.15
2023-03-03T01:03:26.952Z,31.95
2023-03-03T01:05:55.144Z,30.77
2023-03-03T01:08:24.588Z,25.98
2023-03-03T01:10:54.607Z,24.60
2023-03-03T01:13:26.075Z,28.05
2023-03-03T01:15:53.892Z,23.92
2023-03-03T01:18:21.412Z,22.70
2023-03-03T01:20:48.549Z,22.92
2023-03-03T01:23:15.594Z,21.65
2023-03-03T01:25:42.799Z,22.88
2023-03-03T01:28:10.081Z,22.08
2023-03-03T01:30:37.572Z,26.30
2023-03-03T01:33:04.917Z,22.25
2023-03-03T01:35:32.058Z,18.23
2023-03-03T01:37:59.493Z,18.50
2023-03-03T01:40:30.056Z,18.63
2023-03-03T01:43:00.040Z,16.58
2023-03-03T01:45:30.705Z,16.13
2023-03-03T01:48:10.593Z,15.98
2023-03-03T01:50:52.184Z,19.08
2023-03-03T01:53:26.739Z,24.42
2023-03-03T01:55:54.477Z,17.05
2023-03-03T01:58:28.076Z,17.58
2023-03-03T02:01:04.790Z,20.25
2023-03-03T02:03:32.425Z,21.33
2023-03-03T02:06:05.036Z,17.27
2023-03-03T02:08:42.795Z,21.80
2023-03-03T02:11:11.519Z,20.70
2023-03-03T02:13:38.501Z,18.60
2023-03-03T02:16:06.582Z,24.73
2023-03-03T02:18:33.945Z,19.70
2023-03-03T02:21:16.156Z,19.73
2023-03-03T02:24:06.141Z,27.98
2023-03-03T02:26:39.203Z,20.95
2023-03-03T02:29:09.330Z,28.65
2023-03-03T02:31:38.948Z,21.67
2023-03-03T02:34:06.501Z,20.42
2023-03-03T02:36:37.702Z,20.00
2023-03-03T02:39:26.596Z,23.10
2023-03-03T02:42:00.744Z,22.48
2023-03-03T02:44:35.049Z,26.63
2023-03-03T02:47:02.659Z,22.05
2023-03-03T02:49:35.708Z,19.35
2023-03-03T02:52:07.678Z,22.67
2023-03-03T02:54:34.895Z,22.45
2023-03-03T02:57:04.188Z,20.63
2023-03-03T02:59:32.204Z,20.42
2023-03-03T03:02:07.494Z,19.88
2023-03-03T03:04:35.669Z,24.40
2023-03-03T03:07:03.619Z,18.35
2023-03-03T03:09:32.799Z,17.92
2023-03-03T03:12:02.732Z,20.60
2023-03-03T03:14:33.305Z,18.75
2023-03-03T03:17:01.568Z,19.15
2023-03-03T03:19:29.604Z,22.67
2023-03-03T03:22:01.313Z,15.10
2023-03-03T03:24:30.021Z,18.50
2023-03-03T03:27:02.545Z,19.50
2023-03-03T03:29:29.813Z,12.65
2023-03-03T03:31:56.839Z,11.73
2023-03-03T03:34:23.786Z,14.95
2023-03-03T03:36:52.191Z,12.65
2023-03-03T03:39:21.236Z,15.05
2023-03-03T03:41:50.684Z,10.88
2023-03-03T03:44:17.963Z,9.80
2023-03-03T03:46:44.973Z,8.10
2023-03-03T03:49:12.037Z,9.93
2023-03-03T03:51:41.581Z,8.85
2023-03-03T03:54:11.911Z,13.57
2023-03-03T03:56:40.251Z,7.15
2023-03-03T03:59:08.545Z,10.15
2023-03-03T04:01:36.770Z,8.23
2023-03-03T04:04:05.193Z,8.30
2023-03-03T04:06:32.714Z,7.93
2023-03-03T04:09:00.888Z,8.15
2023-03-03T04:11:30.048Z,11.15
2023-03-03T04:13:57.246Z,10.75
2023-03-03T04:16:24.442Z,10.50
2023-03-03T04:18:51.906Z,12.30
2023-03-03T04:21:21.605Z,8.57
2023-03-03T04:23:49.842Z,9.80
2023-03-03T04:26:17.666Z,9.57
2023-03-03T04:28:46.219Z,9.27
2023-03-03T04:31:13.342Z,10.18
2023-03-03T04:33:41.169Z,11.13
2023-03-03T04:36:08.856Z,7.38
2023-03-03T04:38:36.532Z,11.73
2023-03-03T04:41:03.890Z,8.48
2023-03-03T04:43:35.136Z,6.95
2023-03-03T04:46:04.841Z,7.93
2023-03-03T04:48:32.302Z,8.23
2023-03-03T04:50:59.982Z,7.50
2023-03-03T04:53:27.416Z,8.10
2023-03-03T04:55:54.870Z,6.95
2023-03-03T04:58:23.030Z,6.60
2023-03-03T05:00:56.473Z,8.05
2023-03-03T05:03:27.357Z,7.57
2023-03-03T05:05:54.938Z,6.13
2023-03-03T05:08:22.281Z,6.55
2023-03-03T05:10:53.509Z,9.32
2023-03-03T05:13:20.896Z,8.77
2023-03-03T05:15:53.064Z,12.48
2023-03-03T05:18:20.841Z,6.35
2023-03-03T05:20:48.698Z,10.32
2023-03-03T05:23:15.846Z,7.35
2023-03-03T05:25:43.007Z,8.68
2023-03-03T05:28:10.665Z,12.98
2023-03-03T05:30:38.372Z,10.48
2023-03-03T05:33:07.007Z,11.90
2023-03-03T05:35:34.494Z,13.25
2023-03-03T05:38:05.481Z,13.57
2023-03-03T05:40:33.460Z,12.85
2023-03-03T05:43:00.921Z,8.93
2023-03-03T05:45:28.199Z,10.30
2023-03-03T05:47:55.386Z,13.95
2023-03-03T05:50:23.616Z,13.25
2023-03-03T05:52:52.372Z,7.38
2023-03-03T05:55:20.118Z,9.73
2023-03-03T05:57:47.126Z,7.85
2023-03-03T06:00:14.857Z,8.48
2023-03-03T06:02:42.666Z,9.95
2023-03-03T06:05:10.945Z,11.50
2023-03-03T06:07:38.033Z,12.95
2023-03-03T06:10:05.782Z,12.20
2023-03-03T06:12:35.363Z,8.48
2023-03-03T06:15:02.456Z,16.08
2023-03-03T06:17:29.524Z,16.05
2023-03-03T06:19:56.762Z,10.25
2023-03-03T06:22:23.685Z,15.90
2023-03-03T06:24:52.826Z,10.85
2023-03-03T06:27:19.954Z,11.82
2023-03-03T06:29:46.917Z,5.90
2023-03-03T06:32:14.026Z,6.53
2023-03-03T06:34:41.280Z,10.02
2023-03-03T06:37:08.495Z,6.75
2023-03-03T06:39:38.974Z,10.52
2023-03-03T06:42:06.347Z,7.75
2023-03-03T06:44:33.472Z,5.57
2023-03-03T06:47:00.523Z,8.23
2023-03-03T06:49:27.544Z,6.88
2023-03-03T06:51:54.606Z,12.95
2023-03-03T06:54:30.355Z,4.55
2023-03-03T06:57:23.244Z,13.82
2023-03-03T06:59:54.061Z,10.30
2023-03-03T07:02:22.744Z,9.35
2023-03-03T07:04:50.162Z,4.18
2023-03-03T07:07:24.884Z,9.25
2023-03-03T07:09:59.959Z,10.30
2023-03-03T07:12:30.832Z,4.80
2023-03-03T07:15:36.582Z,4.30
2023-03-03T07:18:20.448Z,5.35
2023-03-03T07:20:50.636Z,7.07
2023-03-03T07:23:27.456Z,10.00
2023-03-03T07:25:55.112Z,11.00
2023-03-03T07:28:28.311Z,14.77
2023-03-03T07:30:58.359Z,8.98
2023-03-03T07:33:44.166Z,15.75
2023-03-03T07:39:23.160Z,9.70
2023-03-03T07:41:50.119Z,14.13
2023-03-03T07:44:23.865Z,12.00
2023-03-03T07:46:52.151Z,9.52
2023-03-03T07:49:22.136Z,10.30
2023-03-03T07:51:54.742Z,10.23
2023-03-03T07:54:38.223Z,17.52
2023-03-03T07:57:17.745Z,19.55
2023-03-03T08:00:17.059Z,19.15
2023-03-03T08:02:52.237Z,14.20
2023-03-03T08:05:34.798Z,17.10
2023-03-03T08:08:10.157Z,20.58
2023-03-03T08:10:43.600Z,16.73
2023-03-03T08:13:21.626Z,18.67
2023-03-03T08:16:12.011Z,36.05
2023-03-03T08:18:41.064Z,30.60
2023-03-03T08:21:16.715Z,33.25
2023-03-03T08:23:44.832Z,41.63
2023-03-03T08:26:14.113Z,46.58
2023-03-03T08:28:41.447Z,51.42
2023-03-03T08:31:18.324Z,54.38
2023-03-03T08:33:49.494Z,58.10
2023-03-03T08:36:16.809Z,61.00
2023-03-03T08:38:44.201Z,53.33
2023-03-03T08:41:11.670Z,64.28
2023-03-03T08:43:38.756Z,54.58
2023-03-03T08:46:06.841Z,60.60
2023-03-03T08:48:34.372Z,60.70
2023-03-03T08:51:01.952Z,57.83
2023-03-03T08:53:29.158Z,56.22
2023-03-03T08:55:56.908Z,59.22
2023-03-03T08:58:34.718Z,66.15
2023-03-03T09:01:03.398Z,64.80
2023-03-03T09:03:30.733Z,65.45
2023-03-03T09:05:59.158Z,58.55
2023-03-03T09:08:26.171Z,60.35
2023-03-03T09:10:53.192Z,59.17
2023-03-03T09:13:21.040Z,59.08
2023-03-03T09:15:49.535Z,63.75
2023-03-03T09:18:31.640Z,68.07
2023-03-03T09:20:58.919Z,59.60
2023-03-03T09:23:41.733Z,63.08
2023-03-03T09:26:11.715Z,64.50
2023-03-03T09:28:38.668Z,67.00
2023-03-03T09:31:28.151Z,65.35
2023-03-03T09:33:57.988Z,64.20
2023-03-03T09:36:33.524Z,63.20
2023-03-03T09:39:00.744Z,58.25
2023-03-03T09:41:42.668Z,58.97
2023-03-03T09:44:48.640Z,58.50
2023-03-03T09:47:22.630Z,61.80
2023-03-03T09:50:17.697Z,53.00
2023-03-03T09:53:05.898Z,51.67
2023-03-03T09:55:38.988Z,54.40
2023-03-03T09:58:45.938Z,49.05
2023-03-03T10:01:31.853Z,50.75
2023-03-03T10:06:55.163Z,45.85
2023-03-03T10:10:00.365Z,39.05
2023-03-03T10:13:05.159Z,45.35
2023-03-03T10:15:35.467Z,45.00
2023-03-03T10:18:28.826Z,41.83
2023-03-03T10:20:58.958Z,40.90
2023-03-03T10:23:52.004Z,42.33
2023-03-03T10:26:44.828Z,45.72
2023-03-03T10:29:22.058Z,44.70
2023-03-03T10:32:26.061Z,37.78
2023-03-03T10:35:02.909Z,35.20
2023-03-03T10:37:59.059Z,35.67
2023-03-03T10:43:57.908Z,39.42
2023-03-03T10:46:46.507Z,39.73
2023-03-03T10:49:28.204Z,35.88
2023-03-03T10:52:22.489Z,34.65
2023-03-03T10:55:07.550Z,30.77
2023-03-03T10:58:12.562Z,26.88
2023-03-03T11:00:49.830Z,35.03
2023-03-03T11:04:04.502Z,23.70
2023-03-03T11:06:46.450Z,21.63
2023-03-03T11:09:32.368Z,20.90
2023-03-03T11:12:08.812Z,22.63
2023-03-03T11:15:18.510Z,19.80
2023-03-03T11:18:16.005Z,22.35
2023-03-03T11:21:18.020Z,20.15
2023-03-03T11:24:06.227Z,25.95
2023-03-03T11:27:12.656Z,25.73
2023-03-03T11:29:46.286Z,25.65
2023-03-03T11:32:19.372Z,25.67
2023-03-03T11:35:04.606Z,20.55
2023-03-03T11:37:55.726Z,22.80
2023-03-03T11:40:27.930Z,28.33
2023-03-03T11:42:59.098Z,24.60
2023-03-03T11:45:37.744Z,26.50
2023-03-03T11:48:23.592Z,23.70
2023-03-03T11:53:54.966Z,22.27
2023-03-03T11:56:36.654Z,19.55
2023-03-03T11:59:19.744Z,22.83
2023-03-03T12:01:52.835Z,21.55
2023-03-03T12:04:39.210Z,21.08
2023-03-03T12:07:18.527Z,23.30
2023-03-03T12:09:57.276Z,20.75
2023-03-03T12:12:27.769Z,22.60
2023-03-03T12:15:08.528Z,21.65
2023-03-03T12:17:50.865Z,23.85
2023-03-03T12:20:30.020Z,18.85
2023-03-03T12:23:18.709Z,22.00
2023-03-03T12:26:14.124Z,21.17
2023-03-03T12:29:02.291Z,19.70
2023-03-03T12:32:05.885Z,19.55
2023-03-03T12:34:43.063Z,20.10
2023-03-03T12:37:19.083Z,21.05
2023-03-03T12:39:48.977Z,22.98
2023-03-03T12:42:37.731Z,20.30
2023-03-03T12:45:30.966Z,19.80
2023-03-03T12:48:14.742Z,20.10
2023-03-03T12:50:56.192Z,22.52
2023-03-03T12:53:51.428Z,19.83
2023-03-03T12:56:30.879Z,17.50
2023-03-03T12:59:20.861Z,16.40
2023-03-03T13:01:56.800Z,21.25
2023-03-03T13:04:30.029Z,21.23
2023-03-03T13:07:22.373Z,21.30
2023-03-03T13:10:05.082Z,20.00
2023-03-03T13:12:53.907Z,21.00
2023-03-03T13:15:32.779Z,20.65
2023-03-03T13:18:24.630Z,17.38
2023-03-03T13:20:59.585Z,15.23
2023-03-03T13:23:38.375Z,14.23
2023-03-03T13:26:24.952Z,12.95
2023-03-03T13:29:09.807Z,18.73
2023-03-03T13:31:40.996Z,16.55
2023-03-03T13:34:20.373Z,17.88
2023-03-03T13:37:04.606Z,11.82
2023-03-03T13:39:39.972Z,11.38
2023-03-03T13:44:45.967Z,11.07
2023-03-03T13:47:31.325Z,7.25
2023-03-03T13:50:16.541Z,10.48
2023-03-03T13:53:17.762Z,11.63
2023-03-03T13:56:26.779Z,7.43
2023-03-03T13:59:26.213Z,9.50
2023-03-03T14:02:10.464Z,12.63
2023-03-03T14:04:49.696Z,6.65
2023-03-03T14:07:38.126Z,9.25
2023-03-03T14:10:18.455Z,7.32
2023-03-03T14:13:00.031Z,8.05
2023-03-03T14:15:32.085Z,5.95
2023-03-03T14:18:16.448Z,9.45
2023-03-03T14:20:55.500Z,11.23
2023-03-03T14:23:31.427Z,8.73
2023-03-03T14:26:06.980Z,5.13
2023-03-03T14:28:49.835Z,9.77
2023-03-03T14:31:17.149Z,8.15
2023-03-03T14:33:58.383Z,6.20
2023-03-03T14:36:30.433Z,7.93
2023-03-03T14:38:57.660Z,7.10
2023-03-03T14:41:40.873Z,6.45
2023-03-03T14:44:27.981Z,5.57
2023-03-03T14:47:03.287Z,9.52
2023-03-03T14:49:33.347Z,6.68
2023-03-03T14:52:32.792Z,6.20
2023-03-03T14:55:05.299Z,4.97
2023-03-03T14:57:35.765Z,6.40
2023-03-03T15:00:10.775Z,5.15
2023-03-03T15:03:00.221Z,5.10
2023-03-03T15:05:31.824Z,4.15
2023-03-03T15:08:04.878Z,4.50
2023-03-03T15:10:37.418Z,7.57
2023-03-03T15:13:20.010Z,8.93
2023-03-03T15:16:01.342Z,10.73
2023-03-03T15:18:32.860Z,4.20
2023-03-03T15:21:09.968Z,3.22
2023-03-03T15:23:42.928Z,6.53
2023-03-03T15:26:13.326Z,8.23
2023-03-03T15:28:55.465Z,4.60
2023-03-03T15:31:52.204Z,5.30
2023-03-03T15:34:26.903Z,10.45
2023-03-03T15:37:03.078Z,8.55
2023-03-03T15:39:42.131Z,5.47
2023-03-03T15:42:24.319Z,8.73
2023-03-03T15:45:17.848Z,7.63
2023-03-03T15:48:23.039Z,8.88
2023-03-03T15:51:08.829Z,7.45
2023-03-03T15:56:39.772Z,6.97
2023-03-03T15:59:33.365Z,7.80
2023-03-03T16:02:06.889Z,7.15
2023-03-03T16:04:41.790Z,5.15
2023-03-03T16:07:35.840Z,8.98
2023-03-03T16:10:18.762Z,2.53
2023-03-03T16:12:54.774Z,3.95
2023-03-03T16:15:39.820Z,8.20
2023-03-03T16:18:31.210Z,8.23
2023-03-03T16:21:31.854Z,7.47
2023-03-03T16:24:20.362Z,6.68
2023-03-03T16:27:33.058Z,5.93
2023-03-03T16:30:25.502Z,8.05
2023-03-03T16:33:20.193Z,6.88
2023-03-03T16:36:08.983Z,4.28
2023-03-03T16:38:41.726Z,10.13
2023-03-03T16:41:39.779Z,6.03
2023-03-03T16:44:39.801Z,5.47
2023-03-03T16:47:45.260Z,9.07
2023-03-03T16:50:40.330Z,6.28
2023-03-03T16:53:50.395Z,6.60
2023-03-03T16:56:28.472Z,8.25
2023-03-03T16:58:58.491Z,2.22
2023-03-03T17:01:50.559Z,8.32
2023-03-03T17:04:30.191Z,4.60
2023-03-03T17:07:13.013Z,4.68
2023-03-03T17:10:14.494Z,2.97
2023-03-03T17:13:19.779Z,5.10
2023-03-03T17:15:57.292Z,37.97
2023-03-03T17:18:53.067Z,23.52
2023-03-03T17:21:34.408Z,9.98
2023-03-03T17:24:25.004Z,2.95
2023-03-03T17:27:17.203Z,7.65
2023-03-03T17:30:22.523Z,3.92
2023-03-03T17:33:12.685Z,4.88
2023-03-03T17:35:46.525Z,7.75
2023-03-03T17:38:35.136Z,8.15
2023-03-03T17:41:11.369Z,4.85
2023-03-03T17:44:08.557Z,1.83
2023-03-03T17:46:51.770Z,5.25
2023-03-03T17:49:54.451Z,6.43
2023-03-03T17:52:33.729Z,4.15
2023-03-03T17:55:32.317Z,3.80
2023-03-03T17:58:35.125Z,5.90
2023-03-03T18:01:08.440Z,4.47
2023-03-03T18:04:06.734Z,3.25
2023-03-03T18:06:47.581Z,2.40
2023-03-03T18:09:38.935Z,7.20
2023-03-03T18:12:12.025Z,3.53
2023-03-03T18:14:56.364Z,4.10
2023-03-03T18:17:32.534Z,2.92
2023-03-03T18:20:23.017Z,4.95
2023-03-03T18:22:52.410Z,5.53
2023-03-03T18:25:44.279Z,5.40
2023-03-03T18:28:21.100Z,7.22
2023-03-03T18:31:00.084Z,1.88
2023-03-03T18:33:43.961Z,2.70
2023-03-03T18:36:15.607Z,6.68
2023-03-03T18:38:48.028Z,6.47
2023-03-03T18:41:55.454Z,3.47
2023-03-03T18:44:30.963Z,8.27
2023-03-03T18:46:59.122Z,9.13
2023-03-03T18:50:17.740Z,3.83
2023-03-03T18:53:12.890Z,5.50
2023-03-03T18:55:49.226Z,11.40
2023-03-03T18:58:16.215Z,11.10
2023-03-03T19:01:02.248Z,6.63
2023-03-03T19:03:35.354Z,6.35
2023-03-03T19:06:04.594Z,9.40
2023-03-03T19:08:56.371Z,8.13
2023-03-03T19:11:45.240Z,9.45
2023-03-03T19:14:30.449Z,10.43
2023-03-03T19:16:59.647Z,7.47
2023-03-03T19:19:34.972Z,8.82
2023-03-03T19:25:06.477Z,4.38
2023-03-03T19:27:40.533Z,7.68
2023-03-03T19:30:29.318Z,8.18
2023-03-03T19:33:02.468Z,15.25
2023-03-03T19:35:44.463Z,11.95
2023-03-03T19:38:33.027Z,13.55
2023-03-03T19:41:09.000Z,10.18
2023-03-03T19:44:02.481Z,14.73
2023-03-03T19:46:35.583Z,13.32
2023-03-03T19:49:11.954Z,16.85
2023-03-03T19:51:53.394Z,14.18
2023-03-03T19:54:58.252Z,13.55
2023-03-03T19:57:47.418Z,12.00
2023-03-03T20:00:27.296Z,9.80
2023-03-03T20:03:32.138Z,15.82
2023-03-03T20:06:37.085Z,17.80
2023-03-03T20:09:26.771Z,16.48
2023-03-03T20:11:59.641Z,18.63
2023-03-03T20:14:46.045Z,15.98
2023-03-03T20:17:16.269Z,20.70
2023-03-03T20:20:15.796Z,24.17
2023-03-03T20:23:05.308Z,15.98
2023-03-03T20:25:41.054Z,15.70
2023-03-03T20:28:58.890Z,16.42
2023-03-03T20:31:42.639Z,13.82
2023-03-03T20:34:47.513Z,18.48
2023-03-03T20:37:34.895Z,14.73
2023-03-03T20:40:14.323Z,14.40
2023-03-03T20:43:09.069Z,12.40
2023-03-03T20:45:45.201Z,15.65
2023-03-03T20:48:43.066Z,21.35
2023-03-03T20:51:18.265Z,13.70
2023-03-03T20:53:57.948Z,18.95
2023-03-03T20:56:37.053Z,15.70
2023-03-03T20:59:27.324Z,16.45
2023-03-03T21:02:17.765Z,16.17
2023-03-03T21:04:44.926Z,18.30
2023-03-03T21:07:25.279Z,20.45
2023-03-03T21:10:24.438Z,15.35
2023-03-03T21:12:57.376Z,23.42
2023-03-03T21:15:36.346Z,15.18
2023-03-03T21:18:27.741Z,17.27
2023-03-03T21:20:54.960Z,18.00
2023-03-03T21:23:23.209Z,10.43
2023-03-03T21:25:55.242Z,16.60
2023-03-03T21:28:25.452Z,19.75
2023-03-03T21:31:15.140Z,18.13
2023-03-03T21:33:49.808Z,15.52
2023-03-03T21:36:32.218Z,15.32
2023-03-03T21:39:02.262Z,17.77
2023-03-03T21:42:06.559Z,18.42
2023-03-03T21:44:49.916Z,15.38
2023-03-03T21:47:20.469Z,20.08
2023-03-03T21:49:50.295Z,16.50
2023-03-03T21:52:19.553Z,22.17
2023-03-03T21:54:48.606Z,20.90
2023-03-03T21:57:16.008Z,22.63
2023-03-03T21:59:43.474Z,20.60
2023-03-03T22:02:11.424Z,18.80
2023-03-03T22:04:42.329Z,18.52
2023-03-03T22:07:10.171Z,19.52
2023-03-03T22:09:37.621Z,24.08
2023-03-03T22:12:07.425Z,16.83
2023-03-03T22:14:34.809Z,14.90
2023-03-03T22:17:01.972Z,22.60
2023-03-03T22:19:29.351Z,17.58
2023-03-03T22:21:56.422Z,26.50
2023-03-03T22:24:23.377Z,12.82
2023-03-03T22:26:50.451Z,20.83
2023-03-03T22:29:22.736Z,14.50
2023-03-03T22:31:50.713Z,19.38
2023-03-03T22:34:18.018Z,16.98
2023-03-03T22:36:45.574Z,24.83
2023-03-03T22:39:12.600Z,26.00
2023-03-03T22:41:39.686Z,14.23
2023-03-03T22:44:06.715Z,26.67
2023-03-03T22:46:33.813Z,25.52
2023-03-03T22:49:00.872Z,20.95
2023-03-03T22:51:28.108Z,26.35
2023-03-03T22:53:55.032Z,23.85
2023-03-03T22:56:22.255Z,23.88
2023-03-03T22:58:50.053Z,14.35
2023-03-03T23:01:17.528Z,25.15
2023-03-03T23:03:44.582Z,17.25
2023-03-03T23:06:11.877Z,15.57
2023-03-03T23:08:39.073Z,17.48
2023-03-03T23:11:06.224Z,22.58
2023-03-03T23:13:33.493Z,19.10
2023-03-03T23:16:02.939Z,17.08
2023-03-03T23:18:30.295Z,21.75
2023-03-03T23:20:57.482Z,20.50
2023-03-03T23:23:24.693Z,16.33
2023-03-03T23:25:51.775Z,22.75
2023-03-03T23:28:19.386Z,19.52
2023-03-03T23:30:46.446Z,23.73
2023-03-03T23:33:13.508Z,19.33
2023-03-03T23:35:40.729Z,18.08
2023-03-03T23:38:07.899Z,19.50
2023-03-03T23:40:35.016Z,16.88
2023-03-03T23:43:02.021Z,21.38
2023-03-03T23:45:29.090Z,18.25
2023-03-03T23:47:56.500Z,18.48
2023-03-03T23:50:23.632Z,19.10
2023-03-03T23:52:50.659Z,14.77
2023-03-03T23:55:18.006Z,21.45
2023-03-03T23:57:45.029Z,19.80
